createdAt,value
2023-01-27T00:00:23.367Z,-2.20
2023-01-27T00:00:54.700Z,-2.20
2023-01-27T00:01:24.840Z,-2.20
2023-01-27T00:01:55.961Z,-2.20
2023-01-27T00:02:27.039Z,-2.20
2023-01-27T00:02:59.569Z,-2.20
2023-01-27T00:03:29.268Z,-2.20
2023-01-27T00:04:00.354Z,-2.20
2023-01-27T00:04:31.083Z,-2.20
2023-01-27T00:05:02.059Z,-2.30
2023-01-27T00:05:33.274Z,-2.30
2023-01-27T00:06:04.043Z,-2.30
2023-01-27T00:06:34.889Z,-2.30
2023-01-27T00:07:06.097Z,-2.30
2023-01-27T00:07:36.935Z,-2.30
2023-01-27T00:08:08.687Z,-2.30
2023-01-27T00:08:39.632Z,-2.30
2023-01-27T00:09:10.379Z,-2.30
2023-01-27T00:09:41.002Z,-2.30
2023-01-27T00:10:12.974Z,-2.20
2023-01-27T00:10:44.170Z,-2.20
2023-01-27T00:11:14.296Z,-2.20
2023-01-27T00:11:45.031Z,-2.20
2023-01-27T00:12:33.459Z,-2.20
2023-01-27T00:12:46.639Z,-2.20
2023-01-27T00:13:18.676Z,-2.20
2023-01-27T00:13:49.730Z,-4.59
2023-01-27T00:14:20.779Z,-2.20
2023-01-27T00:14:51.404Z,-2.20
2023-01-27T00:15:22.696Z,-2.20
2023-01-27T00:15:53.027Z,-2.20
2023-01-27T00:16:24.776Z,-2.20
2023-01-27T00:16:54.929Z,-2.20
2023-01-27T00:17:27.681Z,-2.20
2023-01-27T00:17:56.727Z,-2.20
2023-01-27T00:18:28.739Z,-2.20
2023-01-27T00:18:59.989Z,-2.20
2023-01-27T00:19:30.653Z,-2.20
2023-01-27T00:20:03.908Z,-2.20
2023-01-27T00:20:32.234Z,-2.20
2023-01-27T00:21:03.182Z,-2.20
2023-01-27T00:21:34.021Z,-2.20
2023-01-27T00:22:05.237Z,-2.20
2023-01-27T00:22:35.964Z,-2.20
2023-01-27T00:23:38.884Z,-2.20
2023-01-27T00:24:09.640Z,-2.20
2023-01-27T00:24:40.821Z,-2.20
2023-01-27T00:25:11.268Z,-2.20
2023-01-27T00:25:41.936Z,-2.20
2023-01-27T00:26:13.009Z,-2.20
2023-01-27T00:26:43.957Z,-2.20
2023-01-27T00:27:15.207Z,-2.20
2023-01-27T00:27:45.871Z,-2.20
2023-01-27T00:28:17.041Z,-2.20
2023-01-27T00:28:48.209Z,-2.20
2023-01-27T00:29:19.798Z,-2.20
2023-01-27T00:29:50.717Z,-2.10
2023-01-27T00:30:22.268Z,-2.10
2023-01-27T00:30:52.467Z,-2.10
2023-01-27T00:31:23.455Z,-2.10
2023-01-27T00:31:54.468Z,-2.10
2023-01-27T00:32:25.582Z,-2.20
2023-01-27T00:32:56.051Z,-2.20
2023-01-27T00:33:27.110Z,-2.20
2023-01-27T00:33:57.913Z,-2.20
2023-01-27T00:34:30.127Z,-2.20
2023-01-27T00:35:00.814Z,-2.10
2023-01-27T00:35:32.007Z,-2.10
2023-01-27T00:36:02.259Z,-2.10
2023-01-27T00:36:33.322Z,-2.10
2023-01-27T00:37:04.182Z,-2.10
2023-01-27T00:37:34.818Z,-2.10
2023-01-27T00:38:09.462Z,-2.10
2023-01-27T00:38:37.046Z,-2.10
2023-01-27T00:39:08.059Z,-2.20
2023-01-27T00:39:39.653Z,-2.10
2023-01-27T00:40:11.096Z,-2.20
2023-01-27T00:40:41.673Z,-2.20
2023-01-27T00:41:11.972Z,-2.20
2023-01-27T00:41:43.273Z,-2.20
2023-01-27T00:42:14.202Z,-2.10
2023-01-27T00:42:44.834Z,-2.10
2023-01-27T00:43:16.148Z,-2.10
2023-01-27T00:43:47.176Z,-2.10
2023-01-27T00:44:18.555Z,-2.10
2023-01-27T00:44:50.108Z,-2.10
2023-01-27T00:45:21.444Z,-2.10
2023-01-27T00:45:51.518Z,-2.10
2023-01-27T00:46:22.036Z,-2.10
2023-01-27T00:47:11.427Z,-2.10
2023-01-27T00:47:24.019Z,-2.10
2023-01-27T00:47:55.975Z,-2.10
2023-01-27T00:48:26.385Z,-2.10
2023-01-27T00:48:57.133Z,-2.10
2023-01-27T00:49:28.433Z,-2.10
2023-01-27T00:49:59.169Z,-2.10
2023-01-27T00:50:30.697Z,-2.10
2023-01-27T00:51:16.579Z,-2.10
2023-01-27T00:51:32.105Z,-2.10
2023-01-27T00:52:02.934Z,-2.10
2023-01-27T00:52:34.368Z,-2.10
2023-01-27T00:53:05.636Z,-2.10
2023-01-27T00:53:53.633Z,-2.10
2023-01-27T00:54:07.136Z,-2.10
2023-01-27T00:54:38.133Z,-2.10
2023-01-27T00:55:10.081Z,-2.10
2023-01-27T00:55:40.425Z,-2.10
2023-01-27T00:56:12.181Z,-2.10
2023-01-27T00:57:13.437Z,-2.10
2023-01-27T00:57:44.303Z,-2.10
2023-01-27T00:58:15.335Z,-2.10
2023-01-27T00:58:46.114Z,-2.10
2023-01-27T00:59:24.699Z,-2.10
2023-01-27T00:59:48.294Z,-2.10
2023-01-27T01:00:21.126Z,-2.10
2023-01-27T01:00:51.547Z,-2.10
2023-01-27T01:01:21.725Z,-2.10
2023-01-27T01:01:52.236Z,-2.10
2023-01-27T01:02:23.554Z,-2.10
2023-01-27T01:02:54.294Z,-2.10
2023-01-27T01:03:25.149Z,-2.10
2023-01-27T01:03:56.084Z,-2.10
2023-01-27T01:04:27.266Z,-2.10
2023-01-27T01:04:58.007Z,-2.10
2023-01-27T01:05:29.680Z,-2.10
2023-01-27T01:06:31.541Z,-2.10
2023-01-27T01:07:02.187Z,-2.10
2023-01-27T01:07:33.122Z,-2.10
2023-01-27T01:08:05.040Z,-2.10
2023-01-27T01:08:36.265Z,-2.10
2023-01-27T01:09:05.954Z,-2.10
2023-01-27T01:09:37.168Z,-2.10
2023-01-27T01:10:09.675Z,-2.10
2023-01-27T01:10:40.421Z,-2.10
2023-01-27T01:11:11.442Z,-2.10
2023-01-27T01:11:42.876Z,-2.10
2023-01-27T01:12:12.485Z,-2.10
2023-01-27T01:12:43.622Z,-2.10
2023-01-27T01:13:14.251Z,-2.10
2023-01-27T01:13:45.187Z,-2.10
2023-01-27T01:14:16.065Z,-2.10
2023-01-27T01:15:18.900Z,-2.10
2023-01-27T01:15:50.253Z,-2.10
2023-01-27T01:16:21.598Z,-2.10
2023-01-27T01:16:51.723Z,-2.10
2023-01-27T01:17:22.625Z,-2.10
2023-01-27T01:17:53.263Z,-2.10
2023-01-27T01:18:55.232Z,-2.10
2023-01-27T01:19:26.945Z,-2.10
2023-01-27T01:19:57.240Z,-2.10
2023-01-27T01:20:28.187Z,-2.10
2023-01-27T01:20:59.744Z,-2.10
2023-01-27T01:21:30.908Z,-2.10
2023-01-27T01:22:02.535Z,-2.10
2023-01-27T01:22:32.731Z,-2.10
2023-01-27T01:23:03.359Z,-2.10
2023-01-27T01:23:34.552Z,-2.10
2023-01-27T01:24:05.567Z,-2.10
2023-01-27T01:24:36.252Z,-2.10
2023-01-27T01:25:07.335Z,-2.10
2023-01-27T01:25:38.275Z,-2.10
2023-01-27T01:26:10.240Z,-2.10
2023-01-27T01:26:41.381Z,-2.10
2023-01-27T01:27:11.682Z,-2.10
2023-01-27T01:27:43.055Z,-2.10
2023-01-27T01:28:13.581Z,-2.10
2023-01-27T01:28:44.751Z,-2.10
2023-01-27T01:29:15.408Z,-2.10
2023-01-27T01:29:47.409Z,-2.10
2023-01-27T01:30:17.704Z,-2.10
2023-01-27T01:30:49.772Z,-2.10
2023-01-27T01:31:20.268Z,-2.10
2023-01-27T01:31:52.157Z,-2.10
2023-01-27T01:32:22.136Z,-2.10
2023-01-27T01:32:53.403Z,-2.00
2023-01-27T01:33:23.946Z,-2.00
2023-01-27T01:33:55.302Z,-2.00
2023-01-27T01:34:26.411Z,-2.00
2023-01-27T01:34:56.090Z,-2.00
2023-01-27T01:35:27.441Z,-2.00
2023-01-27T01:35:58.557Z,-2.00
2023-01-27T01:36:30.599Z,-2.00
2023-01-27T01:37:01.767Z,-2.00
2023-01-27T01:37:32.410Z,-2.00
2023-01-27T01:38:04.153Z,-2.00
2023-01-27T01:38:33.782Z,-2.00
2023-01-27T01:39:35.511Z,-2.00
2023-01-27T01:40:06.945Z,-2.00
2023-01-27T01:40:37.761Z,-2.00
2023-01-27T01:41:08.651Z,-2.00
2023-01-27T01:41:40.179Z,-2.00
2023-01-27T01:42:11.533Z,-2.00
2023-01-27T01:42:42.809Z,-2.00
2023-01-27T01:43:13.053Z,-2.00
2023-01-27T01:43:43.816Z,-2.00
2023-01-27T01:44:15.109Z,-2.00
2023-01-27T01:44:45.127Z,-2.00
2023-01-27T01:45:16.740Z,-2.00
2023-01-27T01:45:47.646Z,-2.00
2023-01-27T01:46:18.202Z,-2.00
2023-01-27T01:46:49.945Z,-2.00
2023-01-27T01:47:21.766Z,-2.00
2023-01-27T01:47:51.913Z,-2.00
2023-01-27T01:48:23.023Z,-2.00
2023-01-27T01:48:53.389Z,-2.00
2023-01-27T01:49:24.434Z,-2.00
2023-01-27T01:49:56.417Z,-2.00
2023-01-27T01:50:26.414Z,-2.00
2023-01-27T01:50:58.375Z,-2.00
2023-01-27T01:51:28.520Z,-2.00
2023-01-27T01:51:59.532Z,-2.00
2023-01-27T01:52:30.925Z,-2.00
2023-01-27T01:53:02.436Z,-2.00
2023-01-27T01:53:33.099Z,-2.00
2023-01-27T01:54:03.563Z,-2.00
2023-01-27T01:54:34.732Z,-2.00
2023-01-27T01:55:05.860Z,-2.00
2023-01-27T01:55:36.314Z,-2.00
2023-01-27T01:56:07.367Z,-2.00
2023-01-27T01:56:38.343Z,-2.00
2023-01-27T01:57:09.403Z,-2.00
2023-01-27T01:57:41.410Z,-2.00
2023-01-27T01:58:28.819Z,-2.00
2023-01-27T01:59:13.760Z,-2.00
2023-01-27T01:59:44.609Z,-2.00
2023-01-27T02:00:16.452Z,-2.00
2023-01-27T02:00:46.787Z,-2.00
2023-01-27T02:01:17.396Z,-2.00
2023-01-27T02:02:25.262Z,-2.00
2023-01-27T02:02:51.891Z,-2.00
2023-01-27T02:03:22.753Z,-2.00
2023-01-27T02:03:52.682Z,-2.00
2023-01-27T02:04:23.674Z,-2.00
2023-01-27T02:04:54.427Z,-2.00
2023-01-27T02:05:25.655Z,-2.00
2023-01-27T02:05:56.580Z,-2.00
2023-01-27T02:06:27.396Z,-2.00
2023-01-27T02:06:58.381Z,-2.00
2023-01-27T02:07:29.711Z,-2.00
2023-01-27T02:08:02.051Z,-2.00
2023-01-27T02:08:32.545Z,-2.00
2023-01-27T02:09:03.427Z,-2.00
2023-01-27T02:09:33.898Z,-2.00
2023-01-27T02:10:05.054Z,-2.00
2023-01-27T02:10:35.442Z,-2.00
2023-01-27T02:11:06.481Z,-2.00
2023-01-27T02:11:37.417Z,-2.00
2023-01-27T02:12:08.486Z,-1.90
2023-01-27T02:12:39.451Z,-1.90
2023-01-27T02:13:10.588Z,-1.90
2023-01-27T02:13:42.755Z,-1.90
2023-01-27T02:14:13.002Z,-1.90
2023-01-27T02:14:44.040Z,-1.90
2023-01-27T02:15:15.251Z,-1.90
2023-01-27T02:15:45.681Z,-1.90
2023-01-27T02:16:16.602Z,-1.90
2023-01-27T02:16:47.534Z,-1.90
2023-01-27T02:17:18.714Z,-1.90
2023-01-27T02:17:49.361Z,-1.90
2023-01-27T02:18:22.168Z,-1.90
2023-01-27T02:18:52.147Z,-1.90
2023-01-27T02:19:23.259Z,-1.90
2023-01-27T02:19:53.808Z,-1.90
2023-01-27T02:20:25.124Z,-1.90
2023-01-27T02:20:55.348Z,-1.90
2023-01-27T02:21:27.057Z,-1.90
2023-01-27T02:21:57.680Z,-1.90
2023-01-27T02:22:29.428Z,-1.90
2023-01-27T02:22:59.522Z,-1.90
2023-01-27T02:23:31.415Z,-1.90
2023-01-27T02:24:03.079Z,-1.90
2023-01-27T02:24:33.253Z,-1.90
2023-01-27T02:25:04.210Z,-1.90
2023-01-27T02:25:35.230Z,-1.90
2023-01-27T02:26:05.487Z,-1.90
2023-01-27T02:26:36.496Z,-1.90
2023-01-27T02:27:38.467Z,-1.90
2023-01-27T02:28:09.524Z,-1.90
2023-01-27T02:28:41.972Z,-1.90
2023-01-27T02:29:12.020Z,-1.90
2023-01-27T02:29:43.103Z,-1.90
2023-01-27T02:30:14.749Z,-1.90
2023-01-27T02:30:44.898Z,-1.80
2023-01-27T02:31:18.797Z,-1.80
2023-01-27T02:31:46.885Z,-1.80
2023-01-27T02:32:17.901Z,-1.80
2023-01-27T02:32:48.896Z,-1.80
2023-01-27T02:33:19.590Z,-1.80
2023-01-27T02:33:51.662Z,-1.80
2023-01-27T02:34:22.822Z,-1.80
2023-01-27T02:34:53.917Z,-1.80
2023-01-27T02:35:24.523Z,-1.80
2023-01-27T02:35:54.680Z,-1.80
2023-01-27T02:36:25.764Z,-1.80
2023-01-27T02:36:56.830Z,-1.80
2023-01-27T02:37:27.657Z,-1.80
2023-01-27T02:38:04.600Z,-1.80
2023-01-27T02:38:29.580Z,-1.80
2023-01-27T02:39:01.853Z,-1.80
2023-01-27T02:39:33.145Z,-1.80
2023-01-27T02:40:03.965Z,-1.80
2023-01-27T02:40:34.010Z,-1.80
2023-01-27T02:41:05.976Z,-1.70
2023-01-27T02:41:35.460Z,-1.70
2023-01-27T02:42:06.650Z,-1.70
2023-01-27T02:42:37.726Z,-1.70
2023-01-27T02:43:08.636Z,-1.70
2023-01-27T02:43:39.628Z,-1.70
2023-01-27T02:44:10.983Z,-1.70
2023-01-27T02:44:42.553Z,-1.70
2023-01-27T02:45:14.363Z,-1.70
2023-01-27T02:45:44.275Z,-1.70
2023-01-27T02:46:14.945Z,-1.70
2023-01-27T02:46:45.719Z,-1.70
2023-01-27T02:47:17.064Z,-1.70
2023-01-27T02:47:48.025Z,-1.70
2023-01-27T02:48:18.593Z,-1.70
2023-01-27T02:48:50.278Z,-1.70
2023-01-27T02:49:21.515Z,-1.70
2023-01-27T02:49:52.627Z,-1.70
2023-01-27T02:50:24.017Z,-1.70
2023-01-27T02:50:54.320Z,-1.70
2023-01-27T02:51:25.010Z,-1.70
2023-01-27T02:51:55.775Z,-1.70
2023-01-27T02:52:26.712Z,-1.70
2023-01-27T02:53:05.437Z,-1.70
2023-01-27T02:53:28.849Z,-1.70
2023-01-27T02:54:17.700Z,-1.70
2023-01-27T02:54:31.164Z,-1.70
2023-01-27T02:55:02.457Z,-1.70
2023-01-27T02:55:33.355Z,-1.70
2023-01-27T02:56:08.517Z,-1.70
2023-01-27T02:56:35.227Z,-1.70
2023-01-27T02:57:06.442Z,-1.70
2023-01-27T02:57:36.656Z,-1.70
2023-01-27T02:58:07.710Z,-1.70
2023-01-27T02:58:38.400Z,-1.70
2023-01-27T02:59:09.654Z,-1.70
2023-01-27T02:59:41.362Z,-1.70
2023-01-27T03:00:13.207Z,-1.70
2023-01-27T03:00:47.001Z,-1.70
2023-01-27T03:01:14.722Z,-1.60
2023-01-27T03:01:44.931Z,-1.70
2023-01-27T03:02:15.910Z,-1.70
2023-01-27T03:02:46.770Z,-1.70
2023-01-27T03:03:17.697Z,-1.70
2023-01-27T03:03:48.571Z,-1.70
2023-01-27T03:04:19.788Z,-1.60
2023-01-27T03:04:51.486Z,-1.60
2023-01-27T03:05:23.302Z,-1.60
2023-01-27T03:05:53.102Z,-1.60
2023-01-27T03:06:24.167Z,-1.60
2023-01-27T03:06:55.093Z,-1.60
2023-01-27T03:07:25.807Z,-1.60
2023-01-27T03:07:56.543Z,-1.60
2023-01-27T03:08:28.729Z,-1.60
2023-01-27T03:08:58.570Z,-1.60
2023-01-27T03:09:30.068Z,-1.60
2023-01-27T03:10:01.164Z,-1.60
2023-01-27T03:10:32.723Z,-1.60
2023-01-27T03:11:03.825Z,-1.60
2023-01-27T03:11:35.966Z,-1.60
2023-01-27T03:12:05.012Z,-1.60
2023-01-27T03:12:37.252Z,-1.60
2023-01-27T03:13:06.754Z,-1.60
2023-01-27T03:13:37.714Z,-1.60
2023-01-27T03:14:08.915Z,-1.60
2023-01-27T03:14:39.680Z,-1.60
2023-01-27T03:15:12.128Z,-1.60
2023-01-27T03:15:42.790Z,-1.60
2023-01-27T03:16:14.643Z,-1.60
2023-01-27T03:16:44.530Z,-1.60
2023-01-27T03:17:15.221Z,-1.60
2023-01-27T03:17:45.804Z,-1.60
2023-01-27T03:18:16.767Z,-1.50
2023-01-27T03:18:47.642Z,-1.60
2023-01-27T03:19:18.826Z,-1.60
2023-01-27T03:19:49.710Z,-1.50
2023-01-27T03:20:21.651Z,-1.50
2023-01-27T03:20:52.824Z,-1.50
2023-01-27T03:21:23.747Z,-1.50
2023-01-27T03:21:54.531Z,-1.50
2023-01-27T03:22:25.016Z,-1.50
2023-01-27T03:22:55.866Z,-1.50
2023-01-27T03:23:26.676Z,-1.50
2023-01-27T03:23:57.603Z,-1.50
2023-01-27T03:24:59.748Z,-1.50
2023-01-27T03:25:30.849Z,-1.50
2023-01-27T03:26:02.943Z,-1.50
2023-01-27T03:26:33.399Z,-1.50
2023-01-27T03:27:05.132Z,-1.50
2023-01-27T03:27:36.572Z,-1.50
2023-01-27T03:28:06.032Z,-1.40
2023-01-27T03:28:38.659Z,-1.40
2023-01-27T03:29:07.868Z,-1.40
2023-01-27T03:29:38.876Z,-1.40
2023-01-27T03:30:11.011Z,-1.40
2023-01-27T03:30:41.565Z,-1.40
2023-01-27T03:31:13.225Z,-1.40
2023-01-27T03:31:43.979Z,-1.40
2023-01-27T03:32:14.789Z,-1.40
2023-01-27T03:32:45.437Z,-1.40
2023-01-27T03:33:16.058Z,-1.40
2023-01-27T03:33:47.025Z,-1.40
2023-01-27T03:34:18.162Z,-1.40
2023-01-27T03:34:49.101Z,-1.40
2023-01-27T03:35:20.012Z,-1.40
2023-01-27T03:35:51.056Z,-1.40
2023-01-27T03:36:22.322Z,-1.40
2023-01-27T03:36:53.786Z,-1.40
2023-01-27T03:37:24.348Z,-1.30
2023-01-27T03:38:26.410Z,-1.30
2023-01-27T03:38:56.899Z,-1.30
2023-01-27T03:39:27.836Z,-1.30
2023-01-27T03:39:59.012Z,-1.30
2023-01-27T03:40:29.832Z,-1.30
2023-01-27T03:41:01.687Z,-1.30
2023-01-27T03:41:32.932Z,-1.30
2023-01-27T03:42:04.104Z,-1.30
2023-01-27T03:42:34.816Z,-1.30
2023-01-27T03:43:05.086Z,-1.30
2023-01-27T03:43:36.059Z,-1.30
2023-01-27T03:44:07.174Z,-1.30
2023-01-27T03:45:09.927Z,-1.30
2023-01-27T03:45:40.044Z,-1.20
2023-01-27T03:46:11.215Z,-1.20
2023-01-27T03:46:42.406Z,-1.20
2023-01-27T03:47:13.765Z,-1.20
2023-01-27T03:47:45.648Z,-1.20
2023-01-27T03:48:16.322Z,-1.20
2023-01-27T03:48:45.994Z,-1.20
2023-01-27T03:49:35.045Z,-1.20
2023-01-27T03:49:47.982Z,-1.20
2023-01-27T03:50:19.669Z,-1.20
2023-01-27T03:50:50.077Z,-1.20
2023-01-27T03:51:20.011Z,-1.20
2023-01-27T03:51:51.667Z,-1.20
2023-01-27T03:52:23.579Z,-1.20
2023-01-27T03:52:55.032Z,-1.20
2023-01-27T03:53:26.358Z,-1.20
2023-01-27T03:53:56.237Z,-1.20
2023-01-27T03:54:27.097Z,-1.20
2023-01-27T03:54:58.217Z,-1.20
2023-01-27T03:55:28.888Z,-1.20
2023-01-27T03:56:00.347Z,-1.20
2023-01-27T03:56:30.937Z,-1.20
2023-01-27T03:57:02.778Z,-1.20
2023-01-27T03:57:33.285Z,-1.20
2023-01-27T03:58:21.068Z,-1.20
2023-01-27T03:58:35.779Z,-1.20
2023-01-27T03:59:06.449Z,-1.20
2023-01-27T03:59:37.500Z,-1.20
2023-01-27T04:00:09.216Z,-1.20
2023-01-27T04:00:39.088Z,-1.20
2023-01-27T04:01:10.812Z,-1.20
2023-01-27T04:01:41.210Z,-1.20
2023-01-27T04:02:12.575Z,-1.20
2023-01-27T04:02:43.641Z,-1.20
2023-01-27T04:03:17.487Z,-1.20
2023-01-27T04:03:45.886Z,-1.20
2023-01-27T04:04:16.444Z,-1.20
2023-01-27T04:04:46.931Z,-1.20
2023-01-27T04:05:18.118Z,-1.20
2023-01-27T04:05:48.907Z,-1.20
2023-01-27T04:06:20.192Z,-1.20
2023-01-27T04:06:51.021Z,-1.20
2023-01-27T04:07:22.207Z,-1.20
2023-01-27T04:07:53.933Z,-1.20
2023-01-27T04:08:24.764Z,-1.20
2023-01-27T04:08:55.889Z,-1.20
2023-01-27T04:09:26.454Z,-1.20
2023-01-27T04:09:57.123Z,-1.20
2023-01-27T04:10:59.946Z,-1.20
2023-01-27T04:11:31.864Z,-1.20
2023-01-27T04:12:01.469Z,-1.20
2023-01-27T04:12:32.104Z,-1.20
2023-01-27T04:13:04.168Z,-1.20
2023-01-27T04:13:34.944Z,-1.20
2023-01-27T04:14:06.087Z,-1.20
2023-01-27T04:14:36.719Z,-1.20
2023-01-27T04:15:07.795Z,-1.20
2023-01-27T04:15:38.157Z,-1.20
2023-01-27T04:16:08.848Z,-1.20
2023-01-27T04:16:39.850Z,-1.20
2023-01-27T04:17:10.935Z,-1.20
2023-01-27T04:17:41.916Z,-1.20
2023-01-27T04:18:13.694Z,-1.20
2023-01-27T04:18:44.729Z,-1.20
2023-01-27T04:19:15.310Z,-1.20
2023-01-27T04:19:46.271Z,-1.20
2023-01-27T04:20:17.720Z,-1.20
2023-01-27T04:20:48.079Z,-1.20
2023-01-27T04:21:19.013Z,-1.20
2023-01-27T04:21:50.119Z,-1.20
2023-01-27T04:22:21.053Z,-1.20
2023-01-27T04:22:52.111Z,-1.20
2023-01-27T04:23:23.715Z,-1.20
2023-01-27T04:23:54.795Z,-1.20
2023-01-27T04:24:26.265Z,-1.20
2023-01-27T04:24:56.309Z,-1.20
2023-01-27T04:25:27.409Z,-1.20
2023-01-27T04:25:57.960Z,-1.20
2023-01-27T04:26:28.988Z,-1.20
2023-01-27T04:27:00.116Z,-1.20
2023-01-27T04:27:35.742Z,-1.20
2023-01-27T04:28:02.200Z,-1.20
2023-01-27T04:28:43.873Z,-1.10
2023-01-27T04:29:05.456Z,-1.10
2023-01-27T04:29:37.649Z,-1.10
2023-01-27T04:30:07.196Z,-1.10
2023-01-27T04:30:37.326Z,-1.10
2023-01-27T04:31:08.158Z,-1.10
2023-01-27T04:31:39.156Z,-1.10
2023-01-27T04:32:09.966Z,-1.10
2023-01-27T04:32:41.095Z,-1.10
2023-01-27T04:33:11.932Z,-1.10
2023-01-27T04:33:43.494Z,-1.10
2023-01-27T04:34:15.305Z,-1.10
2023-01-27T04:34:45.859Z,-1.10
2023-01-27T04:35:16.460Z,-1.10
2023-01-27T04:35:47.171Z,-1.10
2023-01-27T04:36:17.873Z,-1.10
2023-01-27T04:36:49.051Z,-1.10
2023-01-27T04:37:19.891Z,-1.10
2023-01-27T04:37:51.204Z,-1.10
2023-01-27T04:38:22.303Z,-1.10
2023-01-27T04:38:53.329Z,-1.10
2023-01-27T04:39:41.155Z,-1.10
2023-01-27T04:39:59.962Z,-1.00
2023-01-27T04:40:26.329Z,-1.00
2023-01-27T04:40:56.996Z,-1.00
2023-01-27T04:41:28.077Z,-1.00
2023-01-27T04:41:59.125Z,-1.00
2023-01-27T04:42:29.974Z,-1.00
2023-01-27T04:43:01.089Z,-1.00
2023-01-27T04:43:32.212Z,-1.00
2023-01-27T04:44:03.412Z,-1.00
2023-01-27T04:44:34.724Z,-1.00
2023-01-27T04:45:06.737Z,-1.00
2023-01-27T04:45:39.310Z,-1.00
2023-01-27T04:46:07.525Z,-1.00
2023-01-27T04:46:37.976Z,-1.00
2023-01-27T04:47:44.436Z,-1.00
2023-01-27T04:47:57.403Z,-1.00
2023-01-27T04:48:11.084Z,-1.00
2023-01-27T04:48:41.914Z,-1.00
2023-01-27T04:49:13.350Z,-1.00
2023-01-27T04:50:16.085Z,-1.00
2023-01-27T04:50:46.546Z,-1.00
2023-01-27T04:51:17.322Z,-1.00
2023-01-27T04:51:48.245Z,-.90
2023-01-27T04:52:19.255Z,-.90
2023-01-27T04:52:50.412Z,-.90
2023-01-27T04:53:21.826Z,-.90
2023-01-27T04:53:52.141Z,-.90
2023-01-27T04:54:40.055Z,-.90
2023-01-27T04:54:54.999Z,-.90
2023-01-27T04:55:26.113Z,-.90
2023-01-27T04:55:56.636Z,-.90
2023-01-27T04:56:27.172Z,-.90
2023-01-27T04:56:58.073Z,-.90
2023-01-27T04:57:28.973Z,-.90
2023-01-27T04:58:00.207Z,-.90
2023-01-27T04:58:31.219Z,-.90
2023-01-27T04:59:20.193Z,-.90
2023-01-27T04:59:33.060Z,-.90
2023-01-27T05:00:16.602Z,-.80
2023-01-27T05:00:35.459Z,-.80
2023-01-27T05:01:07.916Z,-.80
2023-01-27T05:01:37.985Z,-.80
2023-01-27T05:02:08.802Z,-.80
2023-01-27T05:02:39.456Z,-.80
2023-01-27T05:03:10.175Z,-.80
2023-01-27T05:04:16.567Z,-.80
2023-01-27T05:04:29.876Z,-.80
2023-01-27T05:04:43.120Z,-.80
2023-01-27T05:05:14.607Z,-.80
2023-01-27T05:05:45.514Z,-.80
2023-01-27T05:06:16.327Z,-.80
2023-01-27T05:06:47.339Z,-.80
2023-01-27T05:07:19.337Z,-.80
2023-01-27T05:07:49.901Z,-.80
2023-01-27T05:08:20.536Z,-.80
2023-01-27T05:08:51.552Z,-.80
2023-01-27T05:09:22.540Z,-.80
2023-01-27T05:09:53.357Z,-.80
2023-01-27T05:10:24.502Z,-.70
2023-01-27T05:11:12.432Z,-.70
2023-01-27T05:11:26.107Z,-.70
2023-01-27T05:11:57.474Z,-.70
2023-01-27T05:12:28.885Z,-.70
2023-01-27T05:12:59.735Z,-.70
2023-01-27T05:13:30.208Z,-.70
2023-01-27T05:14:01.279Z,-.70
2023-01-27T05:14:32.042Z,-.70
2023-01-27T05:15:03.877Z,-.60
2023-01-27T05:15:34.429Z,-.60
2023-01-27T05:16:05.702Z,-.60
2023-01-27T05:16:36.786Z,-.60
2023-01-27T05:17:08.331Z,-.60
2023-01-27T05:17:38.697Z,-.60
2023-01-27T05:18:09.635Z,-.60
2023-01-27T05:18:40.485Z,-.60
2023-01-27T05:19:11.079Z,-.60
2023-01-27T05:19:42.620Z,-.60
2023-01-27T05:20:13.638Z,-.60
2023-01-27T05:20:44.451Z,-.60
2023-01-27T05:21:15.703Z,-.60
2023-01-27T05:21:46.671Z,-.60
2023-01-27T05:22:17.900Z,-.60
2023-01-27T05:22:49.633Z,-.60
2023-01-27T05:23:20.046Z,-.60
2023-01-27T05:23:50.506Z,-.60
2023-01-27T05:24:21.775Z,-.60
2023-01-27T05:24:52.349Z,-.60
2023-01-27T05:25:23.339Z,-.60
2023-01-27T05:25:54.479Z,-.60
2023-01-27T05:26:25.687Z,-.60
2023-01-27T05:26:56.823Z,-.60
2023-01-27T05:27:27.305Z,-.60
2023-01-27T05:27:58.980Z,-.60
2023-01-27T05:28:29.715Z,-.60
2023-01-27T05:29:00.323Z,-.60
2023-01-27T05:29:31.363Z,-.60
2023-01-27T05:30:03.001Z,-.60
2023-01-27T05:30:34.455Z,-.50
2023-01-27T05:31:04.830Z,-.50
2023-01-27T05:31:41.413Z,-.50
2023-01-27T05:32:07.057Z,-.50
2023-01-27T05:32:39.918Z,-.50
2023-01-27T05:33:09.415Z,-.50
2023-01-27T05:33:40.252Z,-.50
2023-01-27T05:34:10.162Z,-.50
2023-01-27T05:34:41.328Z,-.50
2023-01-27T05:35:13.052Z,-.50
2023-01-27T05:35:43.713Z,-.50
2023-01-27T05:36:15.183Z,-.50
2023-01-27T05:36:45.743Z,-.50
2023-01-27T05:37:16.467Z,-.50
2023-01-27T05:37:57.967Z,-.50
2023-01-27T05:38:18.338Z,-.50
2023-01-27T05:38:50.152Z,-.50
2023-01-27T05:39:20.490Z,-.50
2023-01-27T05:39:52.116Z,-.50
2023-01-27T05:40:25.178Z,-.50
2023-01-27T05:40:54.027Z,-.50
2023-01-27T05:41:24.668Z,-.50
2023-01-27T05:41:55.874Z,-.50
2023-01-27T05:42:27.205Z,-.50
2023-01-27T05:42:57.387Z,-.50
2023-01-27T05:43:29.715Z,-.50
2023-01-27T05:44:30.571Z,-.50
2023-01-27T05:45:02.132Z,-.50
2023-01-27T05:45:32.670Z,-.50
2023-01-27T05:46:03.764Z,-.50
2023-01-27T05:46:34.881Z,-.50
2023-01-27T05:47:06.173Z,-.50
2023-01-27T05:47:40.420Z,-.50
2023-01-27T05:48:08.883Z,-.50
2023-01-27T05:48:39.331Z,-.50
2023-01-27T05:49:10.276Z,-.50
2023-01-27T05:49:41.880Z,-.50
2023-01-27T05:50:12.854Z,-.50
2023-01-27T05:50:42.731Z,-.50
2023-01-27T05:51:15.042Z,-.60
2023-01-27T05:51:44.717Z,-.60
2023-01-27T05:52:15.624Z,-.60
2023-01-27T05:52:46.654Z,-.60
2023-01-27T05:53:19.466Z,-.60
2023-01-27T05:53:49.406Z,-.60
2023-01-27T05:54:50.884Z,-.60
2023-01-27T05:55:21.700Z,-.60
2023-01-27T05:55:52.587Z,-.60
2023-01-27T05:56:23.215Z,-.60
2023-01-27T05:56:55.579Z,-.60
2023-01-27T05:57:25.825Z,-.60
2023-01-27T05:57:56.649Z,-.60
2023-01-27T05:58:28.165Z,-.60
2023-01-27T05:58:59.020Z,-.60
2023-01-27T05:59:29.765Z,-.60
2023-01-27T06:00:00.897Z,-.60
2023-01-27T06:00:31.519Z,-.60
2023-01-27T06:01:02.632Z,-.60
2023-01-27T06:01:34.369Z,-.60
2023-01-27T06:02:06.201Z,-.60
2023-01-27T06:02:36.037Z,-.60
2023-01-27T06:03:08.139Z,-.60
2023-01-27T06:03:39.201Z,-.60
2023-01-27T06:04:10.348Z,-.60
2023-01-27T06:04:39.749Z,-.60
2023-01-27T06:05:10.638Z,-.60
2023-01-27T06:05:44.725Z,-.60
2023-01-27T06:06:12.486Z,-.60
2023-01-27T06:06:43.658Z,-.60
2023-01-27T06:07:14.288Z,-.60
2023-01-27T06:07:45.632Z,-.60
2023-01-27T06:08:17.562Z,-.60
2023-01-27T06:08:48.584Z,-.60
2023-01-27T06:09:19.349Z,-.60
2023-01-27T06:09:50.015Z,-.60
2023-01-27T06:10:21.246Z,-.60
2023-01-27T06:10:51.561Z,-.60
2023-01-27T06:11:25.941Z,-.60
2023-01-27T06:11:53.662Z,-.60
2023-01-27T06:12:55.586Z,-.60
2023-01-27T06:13:27.709Z,-.60
2023-01-27T06:13:58.098Z,-.60
2023-01-27T06:14:28.994Z,-.60
2023-01-27T06:14:59.775Z,-.60
2023-01-27T06:15:40.568Z,-.60
2023-01-27T06:16:01.779Z,-.60
2023-01-27T06:16:32.928Z,-.60
2023-01-27T06:17:03.575Z,-.60
2023-01-27T06:17:35.526Z,-.60
2023-01-27T06:18:06.159Z,-.60
2023-01-27T06:18:36.511Z,-.60
2023-01-27T06:19:08.820Z,-.60
2023-01-27T06:19:38.984Z,-.60
2023-01-27T06:20:14.938Z,-.60
2023-01-27T06:20:51.338Z,-.60
2023-01-27T06:21:11.596Z,-.60
2023-01-27T06:21:42.670Z,-.60
2023-01-27T06:22:13.370Z,-.60
2023-01-27T06:23:15.527Z,-.60
2023-01-27T06:23:47.153Z,-.60
2023-01-27T06:24:18.396Z,-.60
2023-01-27T06:24:49.316Z,-.60
2023-01-27T06:25:19.914Z,-.60
2023-01-27T06:25:51.082Z,-.60
2023-01-27T06:26:21.549Z,-.60
2023-01-27T06:26:56.091Z,-.60
2023-01-27T06:27:24.682Z,-.60
2023-01-27T06:27:54.793Z,-.60
2023-01-27T06:28:29.489Z,-.60
2023-01-27T06:28:57.517Z,-.60
2023-01-27T06:29:28.147Z,-.60
2023-01-27T06:30:00.042Z,-.60
2023-01-27T06:30:30.769Z,-.60
2023-01-27T06:31:18.630Z,-.60
2023-01-27T06:31:31.883Z,-.60
2023-01-27T06:32:02.759Z,-.60
2023-01-27T06:32:33.540Z,-.70
2023-01-27T06:33:04.296Z,-.70
2023-01-27T06:33:38.546Z,-.70
2023-01-27T06:34:08.037Z,-.70
2023-01-27T06:34:39.250Z,-.70
2023-01-27T06:35:13.045Z,-.70
2023-01-27T06:35:58.454Z,-.70
2023-01-27T06:36:10.737Z,-.70
2023-01-27T06:36:43.118Z,-.70
2023-01-27T06:37:12.675Z,-.70
2023-01-27T06:37:43.571Z,-.70
2023-01-27T06:38:14.889Z,-.70
2023-01-27T06:38:49.560Z,-.70
2023-01-27T06:39:16.667Z,-.70
2023-01-27T06:39:48.388Z,-.70
2023-01-27T06:40:20.030Z,-.70
2023-01-27T06:40:50.147Z,-.70
2023-01-27T06:41:20.939Z,-.70
2023-01-27T06:41:51.448Z,-.70
2023-01-27T06:42:22.381Z,-.70
2023-01-27T06:42:53.518Z,-.70
2023-01-27T06:43:24.722Z,-.70
2023-01-27T06:43:55.816Z,-.70
2023-01-27T06:44:26.833Z,-.70
2023-01-27T06:44:58.287Z,-.70
2023-01-27T06:45:29.758Z,-.70
2023-01-27T06:46:29.800Z,-.70
2023-01-27T06:47:01.470Z,-.70
2023-01-27T06:47:49.981Z,-.70
2023-01-27T06:48:04.830Z,-.70
2023-01-27T06:48:34.886Z,-.70
2023-01-27T06:49:05.646Z,-.70
2023-01-27T06:49:36.528Z,-.70
2023-01-27T06:50:08.390Z,-.80
2023-01-27T06:50:39.606Z,-.80
2023-01-27T06:51:10.250Z,-.80
2023-01-27T06:51:40.633Z,-.80
2023-01-27T06:52:11.453Z,-.80
2023-01-27T06:52:42.550Z,-.80
2023-01-27T06:53:13.385Z,-.80